Mound, Minnesota
Current Conditions -  °F | °C
As of 4:00 AM on Wednesday 26 Nov 2014 (Local Time) from KFCM Reporting Station
Overcast Overcast  
Wind Chill: 14°   Ceiling: 1600
Heat Index: 24°   Visibility: 10mi
Dew Point: 16°   Wind: 9mph
Humidity: 71%   Direction: 80°E
Pressure: 30.02"   Gusts: NA
Location:  44.93°N, 93.66°W
Report Text: KFCM 261000Z AUTO 08008KT 10SM BKN016 BKN024 OVC043 M04/M09 A3002 RMK AO2 T10441089
Loading
Personal Weather Stations






























Interactive Weather Map New forecast layout! Learn more

10-Day Weather Forecast

Advertisements
Track Severe Weather on mobile